Accueil
METAR-TAF:

METAR-TAF

Aéroports :

Aéroport de San José del Cabo

San José Del Cabo, Mexique

latitude: 23-09N, longitude: 109-42W, altitude: 109 m

Observation

Le bulletin a été fait il y a 21 minutes, à 22:40 UTC
Vent 8 kt de sud-est
Température 28°C
Humidité 62%
Pression 1011 hPa
Visibilité: 19.3 km
Ciel clair

METAR: MMSD 202240Z 13008KT 12SM SKC 28/20 A2984

Heure: 17:01 (23:01 UTC)

Prévision

Le bulletin a été fait il y a 6 heures et 19 minutes, à 16:42 UTC
Prévision valable du 20 à 18 UTC au 21 à 18 UTC
Vent 15 kt de sud/sud-est
Visibilité: 10 km
Ciel clair
Evoluant progressivement
du 21 à 02 UTC au 21 à 03 UTC
Vent kt de nord
A partir de 21 à 1500 UTC
Vent 10 kt de sud/sud-ouest
Visibilité: 10 km
Ciel clair

TAF: MMSD 201642Z 2018/2118 16015KT P6SM SKC BECMG 2102/2103 00000KT FM211500 20010KT P6SM SKC

Observations et prévisions météorologiques de plus de 4000 aéroports (messages METAR et TAF).

Les stations disponibles sont représentées par des disques jaunes et rouges sur la carte.

Passer la souris dessus pour voir le nom de la station.

Cliquer dessus pour voir les observations et prévisions météorologiques.

Pour changer de carte: cliquez sur les boutons verts avec une croix noire pour zoomer, sur le bouton vert avec un tiret pour effectuer un zoom arrière, ou sur les flèches vertes pour les cartes adjacentes.


METAR-TAF: